Time;durP1;ratioP1;P1;durP2;ratioP2;P2;SDS_P1;SDS_P2;PMS_P1;PMS_P2;Temp;Humidity;BMP_temperature;BMP_pressure;BME280_temperature;BME280_humidity;BME280_pressure;Samples;Min_cycle;Max_cycle;Signal;HPM_P1;HPM_P2
2022/03/24 06:04:07;;;;;;;40.63;19.98;;;;;;;4.95;41.34;101348.22;4986514;28;106705;-76
2022/03/24 06:06:37;;;;;;;41.25;20.90;;;;;;;5.17;41.45;101348.44;4984143;28;107248;-74
2022/03/24 06:09:05;;;;;;;46.97;23.20;;;;;;;5.38;41.48;101350.53;4984364;28;106281;-74
2022/03/24 06:11:31;;;;;;;45.92;23.38;;;;;;;5.60;41.72;101344.56;4983350;28;106769;-75
2022/03/24 06:13:57;;;;;;;42.55;23.23;;;;;;;5.82;41.80;101343.03;4984587;28;105885;-76
2022/03/24 06:16:23;;;;;;;44.92;22.77;;;;;;;6.05;41.80;101344.88;4985356;28;106096;-75
2022/03/24 06:18:49;;;;;;;55.35;24.30;;;;;;;6.32;41.78;101346.44;4985318;28;106382;-78
2022/03/24 06:21:15;;;;;;;43.00;22.02;;;;;;;6.56;41.81;101349.06;4983707;28;111400;-79
2022/03/24 06:23:40;;;;;;;43.13;21.83;;;;;;;6.77;41.29;101346.56;4983259;28;106153;-76
2022/03/24 06:26:06;;;;;;;42.05;22.52;;;;;;;6.99;41.06;101347.59;4984684;28;106304;-71
2022/03/24 06:28:31;;;;;;;47.53;24.33;;;;;;;7.21;41.13;101346.75;4984078;28;106059;-75
2022/03/24 06:30:57;;;;;;;41.30;22.42;;;;;;;7.43;40.96;101347.72;4982955;28;105972;-73
2022/03/24 06:33:23;;;;;;;34.78;20.15;;;;;;;7.64;40.64;101347.84;4983447;28;106447;-72
2022/03/24 06:35:49;;;;;;;41.30;22.50;;;;;;;7.89;39.80;101352.00;4984338;28;106214;-73
2022/03/24 06:38:16;;;;;;;42.58;23.60;;;;;;;8.14;40.00;101352.66;4983955;28;106256;-71
2022/03/24 06:40:41;;;;;;;40.30;22.30;;;;;;;8.37;39.70;101357.91;4983851;28;107305;-73
2022/03/24 06:43:07;;;;;;;42.80;22.90;;;;;;;8.61;39.04;101360.31;4983646;28;106038;-73
2022/03/24 06:45:34;;;;;;;39.15;21.85;;;;;;;8.85;39.06;101356.59;4984846;28;105986;-79
2022/03/24 06:47:59;;;;;;;41.40;22.85;;;;;;;9.11;38.61;101365.00;4984302;28;106140;-71
2022/03/24 06:50:25;;;;;;;49.03;26.17;;;;;;;9.35;38.14;101366.50;4983715;28;106091;-75
2022/03/24 06:52:51;;;;;;;42.30;25.48;;;;;;;9.59;37.47;101377.66;4984025;28;106336;-77
2022/03/24 06:55:16;;;;;;;45.38;24.48;;;;;;;9.80;37.30;101361.63;4982760;28;105967;-78
2022/03/24 06:57:43;;;;;;;41.45;24.25;;;;;;;9.95;36.78;101359.41;4979354;28;106302;-77
2022/03/24 07:00:14;;;;;;;40.53;24.00;;;;;;;10.08;36.72;101353.81;4978258;28;106618;-78
2022/03/24 07:02:40;;;;;;;50.35;24.80;;;;;;;10.31;36.42;101358.88;4978508;28;106089;-77
2022/03/24 07:05:08;;;;;;;41.67;23.83;;;;;;;10.59;36.31;101356.38;4981878;28;106690;-75
2022/03/24 07:07:33;;;;;;;42.53;23.70;;;;;;;10.87;35.97;101360.00;4979188;28;106073;-70
2022/03/24 07:09:59;;;;;;;47.50;24.33;;;;;;;10.94;35.01;101358.41;4982944;28;106012;-76
2022/03/24 07:12:24;;;;;;;57.17;34.80;;;;;;;11.21;35.15;101359.47;4982598;28;110528;-73
2022/03/24 07:14:50;;;;;;;41.40;25.95;;;;;;;11.52;34.72;101364.53;4973816;28;105934;-78
2022/03/24 07:17:17;;;;;;;39.28;22.42;;;;;;;11.79;34.71;101371.69;4970402;28;106204;-70
2022/03/24 07:19:43;;;;;;;40.88;23.63;;;;;;;12.08;34.04;101368.03;4969542;28;109799;-78
2022/03/24 07:22:08;;;;;;;40.88;24.05;;;;;;;12.35;33.12;101368.97;4969482;28;106256;-75
2022/03/24 07:24:34;;;;;;;39.92;20.75;;;;;;;12.69;32.87;101371.75;4970955;28;106413;-75
2022/03/24 07:26:59;;;;;;;38.72;22.27;;;;;;;13.03;33.05;101380.88;4969886;28;106191;-79
2022/03/24 07:29:24;;;;;;;38.30;22.00;;;;;;;13.27;32.49;101373.97;4969148;28;122535;-77
2022/03/24 07:31:50;;;;;;;42.15;22.70;;;;;;;13.52;32.20;101374.97;4969806;28;106148;-76
2022/03/24 07:34:16;;;;;;;39.13;21.92;;;;;;;13.76;31.45;101374.22;4970523;28;105994;-76
2022/03/24 07:36:42;;;;;;;42.38;23.20;;;;;;;14.01;31.32;101376.97;4969539;28;105863;-76
2022/03/24 07:39:08;;;;;;;35.25;22.80;;;;;;;14.24;31.21;101379.84;4969074;28;106094;-73
2022/03/24 07:41:34;;;;;;;41.78;23.45;;;;;;;14.60;30.75;101381.41;4967304;28;105971;-70
2022/03/24 07:43:59;;;;;;;42.92;23.27;;;;;;;14.95;30.40;101384.78;4969967;28;105998;-74
2022/03/24 07:46:25;;;;;;;39.70;22.33;;;;;;;15.18;29.77;101380.34;4969679;28;105971;-76
2022/03/24 07:48:50;;;;;;;39.20;23.45;;;;;;;15.44;29.30;101381.13;4968891;28;105886;-76
2022/03/24 07:51:17;;;;;;;38.70;22.83;;;;;;;15.62;28.95;101375.53;4969400;28;111758;-75
2022/03/24 07:53:48;;;;;;;37.80;22.83;;;;;;;15.93;28.55;101382.81;4969959;28;106014;-76
2022/03/24 07:56:14;;;;;;;39.78;22.80;;;;;;;16.11;28.42;101374.47;4933132;28;106234;-79
2022/03/24 07:58:39;;;;;;;35.47;23.08;;;;;;;16.22;28.16;101374.91;4949266;28;106120;-80
2022/03/24 08:01:06;;;;;;;38.65;23.45;;;;;;;16.44;27.85;101382.28;4949450;28;105936;-78
2022/03/24 08:03:32;;;;;;;36.30;23.35;;;;;;;16.65;27.07;101373.53;4949784;28;106020;-79
2022/03/24 08:05:58;;;;;;;39.30;23.90;;;;;;;16.75;26.87;101371.44;4949347;28;106027;-76
2022/03/24 08:08:23;;;;;;;36.42;22.98;;;;;;;17.06;26.54;101381.28;4948770;28;106196;-73
2022/03/24 08:10:50;;;;;;;39.58;24.02;;;;;;;17.33;26.40;101376.25;4949214;28;105981;-75
2022/03/24 08:13:18;;;;;;;44.03;23.95;;;;;;;17.55;25.83;101371.78;4949212;28;106219;-76
2022/03/24 08:15:44;;;;;;;43.33;24.05;;;;;;;17.63;25.63;101379.75;4949461;28;105732;-80
2022/03/24 08:18:11;;;;;;;40.42;24.75;;;;;;;18.03;25.40;101369.50;4949177;28;107136;-76
2022/03/24 08:20:38;;;;;;;39.35;23.42;;;;;;;18.34;25.28;101375.59;4947293;28;105768;-75
2022/03/24 08:23:04;;;;;;;38.95;23.58;;;;;;;18.69;24.67;101383.81;4949930;28;106053;-77
2022/03/24 08:25:30;;;;;;;40.95;23.73;;;;;;;19.04;23.92;101375.78;4948573;28;106083;-76
2022/03/24 08:27:55;;;;;;;40.58;24.13;;;;;;;19.36;23.53;101378.91;4947630;28;108913;-76
2022/03/24 08:30:21;;;;;;;40.67;24.35;;;;;;;19.64;23.33;101378.00;4948988;28;106577;-75
2022/03/24 08:32:47;;;;;;;37.63;24.33;;;;;;;20.01;22.77;101376.72;4949692;28;106349;-76
2022/03/24 08:35:12;;;;;;;37.17;23.38;;;;;;;20.47;22.06;101375.09;4949272;28;105867;-75
2022/03/24 08:37:37;;;;;;;40.75;23.60;;;;;;;20.81;21.73;101367.84;4949008;28;106716;-78
2022/03/24 08:40:04;;;;;;;35.05;23.73;;;;;;;20.71;21.79;101370.97;4948265;28;114542;-76
2022/03/24 08:42:30;;;;;;;35.60;24.63;;;;;;;21.98;20.84;101381.47;4949389;28;106008;-80
2022/03/24 08:44:55;;;;;;;41.17;24.65;;;;;;;24.81;18.98;101377.34;4948985;28;105885;-78
2022/03/24 08:47:21;;;;;;;35.42;22.95;;;;;;;28.08;16.35;101373.28;4947953;28;106532;-74
2022/03/24 08:49:46;;;;;;;41.53;24.63;;;;;;;30.74;13.68;101395.06;4947691;28;106026;-77
2022/03/24 08:52:12;;;;;;;36.88;23.50;;;;;;;32.83;12.56;101393.41;4948633;28;106276;-80
2022/03/24 08:54:38;;;;;;;35.67;24.35;;;;;;;34.62;11.09;101400.34;4948593;28;106315;-74
2022/03/24 08:57:03;;;;;;;34.97;22.83;;;;;;;36.23;10.60;101388.41;4948873;28;106682;-77
2022/03/24 08:59:29;;;;;;;36.92;25.20;;;;;;;37.39;9.60;101395.03;4948889;28;106056;-78
2022/03/24 09:01:54;;;;;;;39.95;25.05;;;;;;;38.20;9.02;101391.97;4947048;28;108463;-73
2022/03/24 09:04:23;;;;;;;34.35;25.98;;;;;;;38.51;9.31;101396.50;4929680;28;106071;-75
2022/03/24 09:06:49;;;;;;;39.73;25.43;;;;;;;38.40;8.86;101399.66;4928917;28;106835;-76
2022/03/24 09:09:14;;;;;;;33.20;25.42;;;;;;;39.16;8.53;101396.44;4929194;28;105905;-77
2022/03/24 09:11:40;;;;;;;36.53;26.80;;;;;;;40.19;8.23;101395.19;4929964;28;106365;-78
2022/03/24 09:14:05;;;;;;;30.80;24.92;;;;;;;41.19;7.95;101403.41;4929417;28;105925;-75
2022/03/24 09:16:31;;;;;;;33.38;25.83;;;;;;;42.29;7.51;101400.66;4929444;28;106409;-75
2022/03/24 09:18:56;;;;;;;37.13;25.17;;;;;;;43.21;7.02;101391.34;4929461;28;106452;-75
2022/03/24 09:21:22;;;;;;;37.85;26.00;;;;;;;43.91;6.59;101403.72;4929927;28;105991;-76
2022/03/24 09:23:47;;;;;;;40.35;27.23;;;;;;;44.18;6.21;101403.81;4929594;28;106212;-76
2022/03/24 09:26:13;;;;;;;36.92;27.92;;;;;;;44.35;6.10;101406.16;4928741;28;107804;-74
2022/03/24 09:28:38;;;;;;;31.98;25.45;;;;;;;44.55;5.83;101408.91;4928228;28;106645;-76
2022/03/24 09:31:04;;;;;;;34.63;25.77;;;;;;;44.88;5.53;101410.25;4929362;28;106019;-75
2022/03/24 09:33:29;;;;;;;34.65;25.98;;;;;;;45.81;5.12;101402.34;4929596;28;105911;-74
2022/03/24 09:35:55;;;;;;;32.42;25.13;;;;;;;45.97;5.12;101407.78;4928916;28;106174;-77
2022/03/24 09:38:20;;;;;;;38.03;25.50;;;;;;;46.37;4.73;101411.84;4928876;28;106368;-73
2022/03/24 09:40:46;;;;;;;34.55;24.83;;;;;;;46.50;4.49;101409.53;4929956;28;106385;-76
2022/03/24 09:43:14;;;;;;;38.58;28.23;;;;;;;47.24;3.92;101406.88;4927407;28;106521;-73
2022/03/24 09:45:45;;;;;;;39.47;29.25;;;;;;;48.17;3.89;101408.47;4926656;28;106407;-72
2022/03/24 09:48:11;;;;;;;36.30;26.23;;;;;;;48.57;3.50;101414.97;4926647;28;106601;-80
2022/03/24 09:50:37;;;;;;;33.22;25.85;;;;;;;48.79;3.68;101416.56;4925990;28;106436;-78
2022/03/24 09:53:03;;;;;;;35.10;25.25;;;;;;;48.78;3.09;101408.50;4927082;28;106634;-77
2022/03/24 09:55:32;;;;;;;30.25;23.85;;;;;;;49.58;2.86;101414.78;4927022;28;106675;-75
2022/03/24 09:57:59;;;;;;;31.92;23.25;;;;;;;49.94;2.87;101409.75;4928293;28;106194;-76
2022/03/24 10:00:25;;;;;;;28.58;21.50;;;;;;;49.83;2.62;101402.53;4929692;28;106050;-75
2022/03/24 10:03:21;;;;;;;25.65;20.45;;;;;;;50.78;2.27;101398.59;4936089;28;105981;-76
2022/03/24 10:06:02;;;;;;;24.35;21.73;;;;;;;50.92;2.42;101398.47;4947439;28;106717;-78
2022/03/24 10:08:29;;;;;;;28.23;21.92;;;;;;;51.03;2.26;101391.88;4947509;28;106394;-80
2022/03/24 10:11:02;;;;;;;23.60;18.70;;;;;;;51.29;2.09;101394.00;4948827;28;105985;-73
2022/03/24 10:13:53;;;;;;;22.45;20.02;;;;;;;51.15;1.81;101394.16;4947984;28;106230;-72
2022/03/24 10:16:34;;;;;;;28.75;21.65;;;;;;;51.51;1.81;101398.59;4948262;28;106337;-76
2022/03/24 10:19:02;;;;;;;21.10;18.70;;;;;;;51.38;2.06;101402.00;4947090;28;106835;-74
2022/03/24 10:21:29;;;;;;;21.58;16.63;;;;;;;51.87;1.94;101398.13;4948264;28;105922;-76
2022/03/24 10:23:57;;;;;;;23.67;17.65;;;;;;;52.37;1.43;101396.53;4947856;28;106161;-73
2022/03/24 10:26:38;;;;;;;26.92;17.92;;;;;;;52.69;1.33;101384.59;4947604;28;107212;-78
2022/03/24 10:29:03;;;;;;;20.88;18.08;;;;;;;53.34;1.28;101394.72;4947312;28;106370;-77
2022/03/24 10:31:36;;;;;;;23.17;16.50;;;;;;;53.70;1.11;101391.09;4948156;28;105972;-76
2022/03/24 10:34:02;;;;;;;18.33;16.05;;;;;;;54.01;0.81;101390.78;4947642;28;106283;-73
2022/03/24 10:36:28;;;;;;;25.27;18.15;;;;;;;53.85;0.72;101387.94;4947534;28;106346;-74
2022/03/24 10:38:58;;;;;;;21.73;16.83;;;;;;;53.53;1.01;101378.09;4947365;28;106224;-73
2022/03/24 10:41:26;;;;;;;22.42;16.77;;;;;;;53.63;0.91;101382.72;4948461;28;105909;-74
2022/03/24 10:43:56;;;;;;;21.35;17.45;;;;;;;54.27;0.55;101376.72;4947624;28;106536;-75
2022/03/24 10:46:24;;;;;;;28.10;18.50;;;;;;;54.24;0.95;101377.63;4947505;28;108258;-76
2022/03/24 10:48:51;;;;;;;23.52;17.33;;;;;;;53.75;0.87;101373.50;4948265;28;106215;-75
2022/03/24 10:51:31;;;;;;;28.92;19.17;;;;;;;53.63;0.98;101374.97;4949914;28;106713;-75
2022/03/24 10:54:46;;;;;;;27.27;19.60;;;;;;;53.92;0.43;101370.69;4950744;28;106169;-74
2022/03/24 10:57:18;;;;;;;26.50;20.67;;;;;;;53.82;0.70;101374.59;4950398;28;105905;-74
2022/03/24 10:59:54;;;;;;;23.92;19.88;;;;;;;53.38;0.79;101371.88;4950326;28;106643;-73
2022/03/24 11:02:20;;;;;;;23.65;19.23;;;;;;;53.45;0.83;101369.72;4950651;28;106117;-74
2022/03/24 11:04:46;;;;;;;26.13;20.10;;;;;;;53.87;0.79;101368.38;4950952;28;105929;-74
2022/03/24 11:07:12;;;;;;;34.67;21.48;;;;;;;54.10;0.49;101367.41;4950606;28;106477;-73
2022/03/24 11:09:37;;;;;;;25.67;21.60;;;;;;;54.07;0.49;101371.13;4949146;28;105870;-71
2022/03/24 11:12:27;;;;;;;23.95;18.85;;;;;;;53.53;0.98;101367.47;4948995;28;106124;-70
2022/03/24 11:14:56;;;;;;;27.58;20.08;;;;;;;53.49;0.83;101363.13;4950147;28;106416;-76
2022/03/24 11:17:24;;;;;;;26.52;19.10;;;;;;;53.98;0.60;101359.53;4949911;28;106883;-78
2022/03/24 11:19:57;;;;;;;23.52;19.13;;;;;;;54.11;0.50;101349.84;4949663;28;106434;-72
2022/03/24 11:22:36;;;;;;;28.60;19.60;;;;;;;53.77;0.63;101348.22;4948567;28;106969;-74
2022/03/24 11:25:03;;;;;;;22.75;18.02;;;;;;;54.01;0.83;101345.19;4948666;28;106479;-75
2022/03/24 11:27:29;;;;;;;22.80;17.33;;;;;;;54.98;0.67;101341.81;4947885;28;107176;-76
2022/03/24 11:29:54;;;;;;;20.38;16.52;;;;;;;54.92;0.17;101340.78;4947889;28;106321;-78
2022/03/24 11:32:20;;;;;;;25.90;16.85;;;;;;;54.63;0.33;101344.44;4948554;28;106655;-69
2022/03/24 11:34:46;;;;;;;21.02;15.50;;;;;;;54.37;0.32;101343.47;4948727;28;106409;-78
2022/03/24 11:37:11;;;;;;;18.13;14.15;;;;;;;54.00;0.42;101337.91;4950199;28;107468;-73
2022/03/24 11:39:36;;;;;;;15.35;13.70;;;;;;;54.32;0.31;101333.44;4950273;28;107228;-72
2022/03/24 11:42:02;;;;;;;16.98;13.68;;;;;;;54.77;0.60;101332.63;4950882;28;105840;-71
2022/03/24 11:45:23;;;;;;;18.98;13.57;;;;;;;55.08;0.03;101335.00;4950305;28;106193;-70
2022/03/24 11:48:01;;;;;;;17.55;15.02;;;;;;;54.78;0.14;101334.22;4932331;28;106791;-69
2022/03/24 11:50:47;;;;;;;20.58;14.05;;;;;;;55.21;0.00;101331.38;4949573;28;106069;-68
2022/03/24 11:53:27;;;;;;;16.48;13.43;;;;;;;55.62;0.21;101326.81;4950642;28;105811;-71
2022/03/24 11:55:58;;;;;;;19.67;15.32;;;;;;;56.02;0.00;101320.63;4950374;28;105985;-73
2022/03/24 11:58:27;;;;;;;23.98;14.73;;;;;;;56.39;0.00;101320.19;4949990;28;106096;-70
2022/03/24 12:00:52;;;;;;;21.42;15.73;;;;;;;56.33;0.00;101319.97;4949673;28;106045;-73
2022/03/24 12:03:45;;;;;;;17.67;14.40;;;;;;;55.74;0.50;101316.69;4950244;28;106502;-69
2022/03/24 12:06:13;;;;;;;19.10;15.32;;;;;;;55.75;0.00;101309.69;4948165;28;106210;-71
2022/03/24 12:09:02;;;;;;;23.42;15.30;;;;;;;55.81;0.14;101309.94;4949503;28;105989;-73
2022/03/24 12:11:33;;;;;;;19.83;15.07;;;;;;;55.60;0.04;101312.19;4949477;28;106032;-68
2022/03/24 12:14:07;;;;;;;20.48;14.85;;;;;;;55.17;0.22;101305.78;4949979;28;105975;-72
2022/03/24 12:16:36;;;;;;;23.70;14.20;;;;;;;54.88;0.40;101303.00;4949633;28;106016;-70
2022/03/24 12:19:03;;;;;;;18.63;11.25;;;;;;;54.64;0.42;101303.22;4949286;28;106731;-69
2022/03/24 12:21:30;;;;;;;16.10;10.45;;;;;;;55.14;0.01;101297.34;4948856;28;107125;-69
2022/03/24 12:24:02;;;;;;;18.05;10.50;;;;;;;55.19;0.28;101299.63;4949819;28;106154;-71
2022/03/24 12:26:35;;;;;;;18.27;11.20;;;;;;;55.18;0.54;101293.13;4949293;28;106238;-72
2022/03/24 12:29:10;;;;;;;17.88;10.18;;;;;;;54.90;0.00;101283.34;4949137;28;106632;-71
2022/03/24 12:31:53;;;;;;;16.58;8.95;;;;;;;54.92;0.33;101292.28;4949462;28;105951;-69
2022/03/24 12:34:21;;;;;;;15.75;7.50;;;;;;;54.66;0.17;101289.34;4950306;28;106346;-71
2022/03/24 12:36:47;;;;;;;14.73;8.82;;;;;;;54.49;0.12;101282.88;4953430;28;106750;-69
2022/03/24 12:39:30;;;;;;;17.02;8.05;;;;;;;54.22;0.04;101286.06;4954031;28;106716;-70
2022/03/24 12:42:15;;;;;;;13.00;7.32;;;;;;;54.15;0.00;101286.25;4957033;28;106119;-69
2022/03/24 12:44:48;;;;;;;15.07;7.03;;;;;;;53.95;0.20;101279.41;4952226;28;106444;-72
2022/03/24 12:47:38;;;;;;;11.95;7.45;;;;;;;53.58;0.24;101277.91;4948471;28;106255;-74
2022/03/24 12:50:16;;;;;;;13.88;7.15;;;;;;;53.50;0.13;101297.19;4955354;28;107313;-73
2022/03/24 12:52:54;;;;;;;14.23;8.50;;;;;;;53.59;0.33;101291.69;4949935;28;107260;-73
2022/03/24 12:55:27;;;;;;;9.90;7.47;;;;;;;53.62;0.17;101290.00;4947867;28;106076;-73
2022/03/24 12:58:09;;;;;;;21.65;8.50;;;;;;;53.61;0.00;101277.00;4949690;28;106127;-72
2022/03/24 13:00:40;;;;;;;13.77;7.20;;;;;;;53.46;0.40;101287.94;4947261;28;106134;-71
2022/03/24 13:03:06;;;;;;;11.23;7.15;;;;;;;53.26;0.34;101282.25;4940697;28;107966;-73
2022/03/24 13:05:34;;;;;;;14.88;7.63;;;;;;;53.44;0.01;101276.19;4948610;28;106010;-75
2022/03/24 13:08:02;;;;;;;11.93;7.00;;;;;;;52.89;0.48;101279.41;4948380;28;106717;-74
2022/03/24 13:10:35;;;;;;;12.85;6.65;;;;;;;51.79;0.57;101270.44;4948910;28;106256;-73
2022/03/24 13:13:02;;;;;;;13.98;6.70;;;;;;;50.81;0.69;101272.97;4948088;28;106065;-73
2022/03/24 13:15:30;;;;;;;16.10;7.57;;;;;;;50.36;0.61;101267.41;4949465;28;106280;-75
2022/03/24 13:17:59;;;;;;;13.00;7.20;;;;;;;50.22;0.60;101265.50;4948298;28;106163;-72
2022/03/24 13:20:27;;;;;;;20.08;7.03;;;;;;;49.76;0.70;101258.97;4948135;28;106658;-72
2022/03/24 13:22:53;;;;;;;14.52;7.50;;;;;;;49.60;0.87;101265.19;4948088;28;105901;-69
2022/03/24 13:25:21;;;;;;;13.13;7.32;;;;;;;49.08;1.06;101260.97;4947992;28;106215;-70
2022/03/24 13:27:51;;;;;;;10.13;6.43;;;;;;;48.78;1.09;101256.63;4947964;28;106229;-73
2022/03/24 13:30:20;;;;;;;13.43;7.07;;;;;;;48.34;1.28;101252.28;4948258;28;105974;-73
2022/03/24 13:32:48;;;;;;;10.75;6.53;;;;;;;47.04;1.35;101254.91;4948424;28;106256;-73
2022/03/24 13:35:16;;;;;;;10.90;5.75;;;;;;;45.10;1.86;101257.63;4949317;28;105895;-70
2022/03/24 13:37:56;;;;;;;18.38;9.27;;;;;;;42.57;2.55;101249.34;4948948;28;106466;-69
2022/03/24 13:40:25;;;;;;;14.68;6.70;;;;;;;39.40;3.43;101246.13;4948618;28;105982;-71
2022/03/24 13:42:51;;;;;;;11.20;5.60;;;;;;;36.68;4.39;101245.19;4948270;28;106395;-72
2022/03/24 13:45:18;;;;;;;12.18;5.95;;;;;;;34.73;5.33;101238.56;4948982;28;106190;-74
2022/03/24 13:47:52;;;;;;;12.63;5.80;;;;;;;33.31;5.49;101238.81;4948652;28;106130;-69
2022/03/24 13:50:20;;;;;;;10.88;4.40;;;;;;;32.26;6.11;101236.78;4948244;28;106221;-71
2022/03/24 13:52:51;;;;;;;11.15;5.20;;;;;;;31.39;6.39;101233.56;4947164;28;106126;-69
2022/03/24 13:55:19;;;;;;;21.65;7.20;;;;;;;30.46;6.55;101235.09;4947475;28;106054;-74
2022/03/24 13:58:10;;;;;;;11.00;5.18;;;;;;;29.86;7.17;101225.50;4948506;28;105924;-72
2022/03/24 14:00:48;;;;;;;12.98;5.80;;;;;;;29.28;7.42;101220.22;4948346;28;105968;-72
2022/03/24 14:03:14;;;;;;;12.18;6.03;;;;;;;28.61;7.60;101217.19;4947687;28;106128;-72
2022/03/24 14:05:44;;;;;;;11.55;4.55;;;;;;;28.44;7.84;101217.38;4948581;28;106231;-71
2022/03/24 14:08:09;;;;;;;10.52;4.70;;;;;;;28.19;7.96;101218.06;4947938;28;106120;-72
2022/03/24 14:10:51;;;;;;;14.10;5.88;;;;;;;28.03;8.42;101217.13;4948285;28;106254;-71
2022/03/24 14:13:22;;;;;;;11.43;5.28;;;;;;;27.66;8.15;101218.69;4948568;28;106288;-69
2022/03/24 14:15:48;;;;;;;14.50;6.30;;;;;;;27.45;8.42;101214.97;4949240;28;106306;-71
2022/03/24 14:18:19;;;;;;;11.70;6.03;;;;;;;27.13;8.70;101209.38;4948242;28;106269;-72
2022/03/24 14:20:50;;;;;;;14.07;6.43;;;;;;;26.92;8.86;101203.69;4948191;28;105888;-73
2022/03/24 14:47:57;;;;;;;14.98;7.55;;;;;;;24.10;9.63;101173.84;5003307;28;106116;-72
2022/03/24 14:50:23;;;;;;;16.55;7.55;;;;;;;23.73;10.22;101179.47;4984476;28;106829;-71
2022/03/24 14:52:48;;;;;;;14.90;7.40;;;;;;;23.29;10.83;101173.44;4983032;28;106373;-70
2022/03/24 14:55:14;;;;;;;13.20;7.20;;;;;;;22.94;11.14;101172.22;4983450;28;109568;-69
2022/03/24 14:57:39;;;;;;;9.40;6.60;;;;;;;22.55;11.57;101178.94;4982916;28;106069;-68
2022/03/24 15:00:06;;;;;;;12.20;7.00;;;;;;;22.30;11.62;101169.78;4983225;28;106117;-68
2022/03/24 15:02:36;;;;;;;12.32;7.15;;;;;;;22.13;11.97;101164.09;5000605;28;107450;-77
2022/03/24 15:05:02;;;;;;;;;;;;;;;22.03;12.18;101169.19;4985601;28;106364;-68
2022/03/24 15:07:27;;;;;;;12.52;7.47;;;;;;;21.87;12.07;101167.91;4983542;28;106026;-71
2022/03/24 15:09:53;;;;;;;14.65;8.52;;;;;;;21.69;12.37;101168.63;4984123;28;105986;-72
2022/03/24 15:12:18;;;;;;;15.65;8.07;;;;;;;21.43;12.57;101162.34;4983484;28;106487;-74
2022/03/24 15:17:27;;;;;;;16.30;7.85;;;;;;;20.77;13.13;101167.06;4980689;28;106015;-75
2022/03/24 15:19:53;;;;;;;15.85;9.63;;;;;;;20.53;13.15;101163.16;4983096;28;106013;-69
2022/03/24 15:22:18;;;;;;;12.85;7.07;;;;;;;20.32;13.51;101163.41;4976812;28;106286;-69
2022/03/24 15:24:44;;;;;;;15.20;8.80;;;;;;;20.09;13.64;101162.84;4984483;28;106863;-74
2022/03/24 15:27:11;;;;;;;13.00;7.40;;;;;;;19.88;13.85;101165.75;4983589;28;105942;-74
2022/03/24 15:29:37;;;;;;;13.70;7.55;;;;;;;19.67;14.03;101155.94;4984233;28;106096;-73
2022/03/24 15:32:04;;;;;;;12.70;7.22;;;;;;;19.44;14.11;101159.88;4984652;28;106271;-73
2022/03/24 15:34:30;;;;;;;13.60;7.38;;;;;;;19.22;14.36;101153.81;4983960;28;106565;-71
2022/03/24 15:36:55;;;;;;;13.45;6.32;;;;;;;19.01;14.46;101158.28;4984242;28;105784;-71
2022/03/24 15:39:21;;;;;;;15.13;7.47;;;;;;;18.82;14.75;101167.13;4984624;28;106072;-72
2022/03/24 15:41:48;;;;;;;11.18;6.55;;;;;;;18.69;14.85;101165.22;4984387;28;106083;-72
2022/03/24 15:44:17;;;;;;;20.73;8.60;;;;;;;18.52;14.81;101157.44;4983886;28;106232;-72
2022/03/24 15:46:43;;;;;;;13.05;6.13;;;;;;;18.29;15.15;101167.66;4983047;28;106195;-72
2022/03/24 15:49:08;;;;;;;11.77;6.20;;;;;;;18.10;14.99;101159.25;4984707;28;105804;-72
2022/03/24 15:51:34;;;;;;;13.82;5.53;;;;;;;17.95;15.11;101161.19;4982462;28;106278;-73
2022/03/24 15:53:59;;;;;;;12.73;5.10;;;;;;;17.79;15.61;101162.28;4983385;28;107710;-74
2022/03/24 15:56:24;;;;;;;10.45;5.45;;;;;;;17.54;15.19;101160.81;4983487;28;105960;-72
2022/03/24 15:58:50;;;;;;;11.00;5.40;;;;;;;17.35;15.78;101156.09;4974101;28;105892;-71
2022/03/24 16:01:17;;;;;;;9.77;5.32;;;;;;;17.18;15.68;101163.53;4970599;28;106231;-72
2022/03/24 16:03:42;;;;;;;10.50;5.57;;;;;;;16.99;15.88;101157.75;4970614;28;106578;-72
2022/03/24 16:06:07;;;;;;;13.57;5.50;;;;;;;16.83;16.01;101161.47;4969880;28;106262;-72
2022/03/24 16:08:33;;;;;;;12.55;5.78;;;;;;;16.66;16.13;101162.69;4971510;28;106434;-72
2022/03/24 16:10:58;;;;;;;16.65;6.35;;;;;;;16.49;16.10;101160.19;4970589;28;105903;-75
2022/03/24 16:13:26;;;;;;;13.55;6.38;;;;;;;16.34;16.21;101164.72;4970393;28;106243;-74
2022/03/24 16:15:51;;;;;;;12.55;6.65;;;;;;;16.19;16.22;101165.53;4970096;28;106357;-73
2022/03/24 16:18:17;;;;;;;11.15;6.35;;;;;;;16.04;16.55;101159.31;4971149;28;106633;-74
2022/03/24 16:20:42;;;;;;;15.38;6.32;;;;;;;15.92;16.74;101160.78;4970573;28;106256;-73
2022/03/24 16:23:07;;;;;;;13.27;6.45;;;;;;;15.77;16.67;101169.59;4970660;28;106113;-73
2022/03/24 16:25:34;;;;;;;12.32;6.85;;;;;;;15.65;17.02;101165.66;4970275;28;106278;-73
2022/03/24 16:28:01;;;;;;;11.38;6.93;;;;;;;15.50;17.01;101163.75;4970478;28;106082;-76
2022/03/24 16:30:26;;;;;;;19.45;8.68;;;;;;;15.37;17.00;101160.84;4970069;28;106229;-75
2022/03/24 16:32:52;;;;;;;13.35;6.20;;;;;;;15.25;17.18;101170.31;4970287;28;106685;-76
2022/03/24 16:35:18;;;;;;;13.30;6.35;;;;;;;15.09;17.44;101160.50;4970617;28;106018;-73
2022/03/24 16:37:43;;;;;;;15.30;7.18;;;;;;;14.95;17.59;101170.94;4970861;28;106048;-72
2022/03/24 16:40:09;;;;;;;13.15;6.15;;;;;;;14.82;17.96;101168.03;4974966;28;106287;-74
2022/03/24 16:42:34;;;;;;;10.88;6.90;;;;;;;14.69;17.63;101182.81;4972039;28;106036;-78
2022/03/24 16:44:59;;;;;;;14.77;7.03;;;;;;;14.56;17.90;101177.94;4973930;28;106193;-76
2022/03/24 16:47:25;;;;;;;11.50;7.60;;;;;;;14.44;18.34;101179.31;4972683;28;106467;-74
2022/03/24 16:49:50;;;;;;;14.40;7.45;;;;;;;14.29;18.16;101178.38;4971158;28;106297;-77
2022/03/24 16:52:18;;;;;;;13.05;7.32;;;;;;;14.15;18.62;101180.72;4969992;28;106318;-75
2022/03/24 16:54:44;;;;;;;15.65;6.82;;;;;;;13.99;18.37;101178.88;4969964;28;105741;-73
2022/03/24 16:57:09;;;;;;;13.23;6.97;;;;;;;13.83;18.57;101179.75;4970985;28;105780;-75
2022/03/24 16:59:35;;;;;;;13.15;6.68;;;;;;;13.69;18.84;101185.75;4970057;28;105866;-74
2022/03/24 17:02:02;;;;;;;14.45;6.88;;;;;;;13.55;19.27;101187.25;4969748;28;105899;-74
2022/03/24 17:04:27;;;;;;;12.68;7.22;;;;;;;13.44;19.72;101183.06;4969549;28;106441;-74
2022/03/24 17:06:53;;;;;;;14.25;7.82;;;;;;;13.29;19.73;101180.16;4969991;28;106125;-73
2022/03/24 17:09:19;;;;;;;17.63;8.85;;;;;;;13.15;19.88;101189.66;4968805;28;106276;-71
2022/03/24 17:11:45;;;;;;;17.35;8.02;;;;;;;13.04;19.94;101192.63;4969174;28;107297;-74
2022/03/24 17:14:10;;;;;;;17.92;8.52;;;;;;;12.88;20.21;101198.75;4969154;28;106117;-73
2022/03/24 17:16:35;;;;;;;15.02;8.50;;;;;;;12.75;20.68;101201.03;4970367;28;105936;-75
2022/03/24 17:19:01;;;;;;;14.48;8.70;;;;;;;12.61;20.52;101203.28;4969419;28;106240;-75
2022/03/24 17:21:28;;;;;;;21.00;9.95;;;;;;;12.49;20.98;101199.22;4969813;28;105962;-74
2022/03/24 17:23:54;;;;;;;16.95;8.35;;;;;;;12.36;21.53;101205.00;4969721;28;105943;-76
2022/03/24 17:26:19;;;;;;;16.30;8.90;;;;;;;12.22;21.04;101203.72;4970188;28;106237;-73
2022/03/24 17:28:45;;;;;;;25.98;9.30;;;;;;;12.09;21.77;101208.63;4984075;28;106573;-77
2022/03/24 17:31:10;;;;;;;19.00;9.95;;;;;;;11.98;21.75;101204.38;4973287;28;107275;-75
2022/03/24 17:33:35;;;;;;;22.73;10.45;;;;;;;11.89;21.95;101213.28;4979825;28;106292;-74
2022/03/24 17:36:01;;;;;;;21.58;9.45;;;;;;;11.77;21.95;101205.50;4989315;28;105988;-74
2022/03/24 17:38:26;;;;;;;19.70;10.60;;;;;;;11.69;22.12;101202.75;4988725;28;106126;-73
2022/03/24 17:40:52;;;;;;;22.17;11.90;;;;;;;11.58;22.67;101203.00;4987753;28;105960;-74
2022/03/24 17:43:17;;;;;;;18.25;10.55;;;;;;;11.50;22.47;101201.09;4987264;28;122005;-73
2022/03/24 17:45:43;;;;;;;18.27;11.23;;;;;;;11.42;22.76;101206.34;4988015;28;106103;-73